sensor_id;sensor_type;location;lat;lon;timestamp;pressure;altitude;pressure_sealevel;temperature;humidity
19259;BME280;9763;48.780;9.212;2023-07-28T00:00:32;97666.25;;;21.34;71.89
19259;BME280;9763;48.780;9.212;2023-07-28T00:03:57;97669.44;;;21.30;71.57
19259;BME280;9763;48.780;9.212;2023-07-28T00:07:22;97660.94;;;21.19;71.54
19259;BME280;9763;48.780;9.212;2023-07-28T00:10:47;97679.34;;;21.21;71.27
19259;BME280;9763;48.780;9.212;2023-07-28T00:14:10;97670.25;;;21.15;72.09
19259;BME280;9763;48.780;9.212;2023-07-28T00:17:34;97669.00;;;21.11;71.96
19259;BME280;9763;48.780;9.212;2023-07-28T00:20:59;97640.53;;;20.91;72.06
19259;BME280;9763;48.780;9.212;2023-07-28T00:24:22;97657.63;;;21.03;71.61
19259;BME280;9763;48.780;9.212;2023-07-28T00:27:46;97673.72;;;21.01;72.22
19259;BME280;9763;48.780;9.212;2023-07-28T00:31:09;97666.16;;;20.98;71.55
19259;BME280;9763;48.780;9.212;2023-07-28T00:34:33;97640.34;;;20.77;71.94
19259;BME280;9763;48.780;9.212;2023-07-28T00:37:58;97666.34;;;20.97;71.84
19259;BME280;9763;48.780;9.212;2023-07-28T00:41:22;97660.22;;;20.96;71.62
19259;BME280;9763;48.780;9.212;2023-07-28T00:44:45;97657.56;;;20.96;71.72
19259;BME280;9763;48.780;9.212;2023-07-28T00:48:13;97619.94;;;20.78;71.99
19259;BME280;9763;48.780;9.212;2023-07-28T00:51:38;97655.91;;;20.95;71.85
19259;BME280;9763;48.780;9.212;2023-07-28T00:55:06;97657.56;;;20.96;72.27
19259;BME280;9763;48.780;9.212;2023-07-28T00:58:30;97658.56;;;20.95;72.41
19259;BME280;9763;48.780;9.212;2023-07-28T01:01:54;97657.81;;;21.01;72.77
19259;BME280;9763;48.780;9.212;2023-07-28T01:05:17;97652.78;;;21.06;72.32
19259;BME280;9763;48.780;9.212;2023-07-28T01:08:48;97654.06;;;21.10;72.81
19259;BME280;9763;48.780;9.212;2023-07-28T01:12:14;97646.19;;;21.17;72.81
19259;BME280;9763;48.780;9.212;2023-07-28T01:15:37;97648.97;;;21.24;72.63
19259;BME280;9763;48.780;9.212;2023-07-28T01:19:01;97647.56;;;21.28;72.55
19259;BME280;9763;48.780;9.212;2023-07-28T01:23:05;97638.88;;;21.34;72.63
19259;BME280;9763;48.780;9.212;2023-07-28T01:26:34;97638.50;;;21.37;73.10
19259;BME280;9763;48.780;9.212;2023-07-28T01:30:00;97642.41;;;21.41;72.67
19259;BME280;9763;48.780;9.212;2023-07-28T01:33:24;97644.69;;;21.44;72.26
19259;BME280;9763;48.780;9.212;2023-07-28T01:36:47;97640.84;;;21.46;72.18
19259;BME280;9763;48.780;9.212;2023-07-28T01:40:11;97642.09;;;21.50;72.27
19259;BME280;9763;48.780;9.212;2023-07-28T01:43:36;97643.56;;;21.53;72.08
19259;BME280;9763;48.780;9.212;2023-07-28T01:47:00;97632.03;;;21.61;72.18
19259;BME280;9763;48.780;9.212;2023-07-28T01:50:23;97623.28;;;21.67;72.73
19259;BME280;9763;48.780;9.212;2023-07-28T01:53:47;97624.16;;;21.74;72.25
19259;BME280;9763;48.780;9.212;2023-07-28T01:57:10;97606.59;;;21.73;72.20
19259;BME280;9763;48.780;9.212;2023-07-28T02:00:35;97613.63;;;21.80;72.67
19259;BME280;9763;48.780;9.212;2023-07-28T02:03:59;97618.75;;;21.82;72.60
19259;BME280;9763;48.780;9.212;2023-07-28T02:07:23;97613.53;;;21.74;71.78
19259;BME280;9763;48.780;9.212;2023-07-28T02:10:47;97606.53;;;21.66;71.64
19259;BME280;9763;48.780;9.212;2023-07-28T02:14:10;97616.78;;;21.69;71.57
19259;BME280;9763;48.780;9.212;2023-07-28T02:17:35;97614.69;;;21.65;71.60
19259;BME280;9763;48.780;9.212;2023-07-28T02:20:59;97610.97;;;21.59;71.11
19259;BME280;9763;48.780;9.212;2023-07-28T02:24:22;97607.84;;;21.55;71.45
19259;BME280;9763;48.780;9.212;2023-07-28T02:27:46;97612.91;;;21.50;71.49
19259;BME280;9763;48.780;9.212;2023-07-28T02:31:10;97615.03;;;21.40;70.78
19259;BME280;9763;48.780;9.212;2023-07-28T02:34:35;97636.72;;;21.44;71.05
19259;BME280;9763;48.780;9.212;2023-07-28T02:37:58;97609.50;;;21.20;71.40
19259;BME280;9763;48.780;9.212;2023-07-28T02:41:22;97641.53;;;21.34;71.52
19259;BME280;9763;48.780;9.212;2023-07-28T02:44:45;97643.91;;;21.29;71.36
19259;BME280;9763;48.780;9.212;2023-07-28T02:48:09;97647.13;;;21.24;71.01
19259;BME280;9763;48.780;9.212;2023-07-28T02:51:34;97654.81;;;21.19;70.96
19259;BME280;9763;48.780;9.212;2023-07-28T02:54:57;97662.78;;;21.19;70.88
19259;BME280;9763;48.780;9.212;2023-07-28T02:58:21;97661.97;;;21.18;70.90
19259;BME280;9763;48.780;9.212;2023-07-28T03:01:45;97664.44;;;21.20;71.53
19259;BME280;9763;48.780;9.212;2023-07-28T03:05:10;97660.78;;;21.21;71.60
19259;BME280;9763;48.780;9.212;2023-07-28T03:08:45;97681.81;;;21.23;70.98
19259;BME280;9763;48.780;9.212;2023-07-28T03:12:41;97680.81;;;21.24;71.37
19259;BME280;9763;48.780;9.212;2023-07-28T03:16:05;97685.13;;;21.25;71.31
19259;BME280;9763;48.780;9.212;2023-07-28T03:19:28;97678.53;;;21.20;71.29
19259;BME280;9763;48.780;9.212;2023-07-28T03:22:52;97684.09;;;21.26;71.63
19259;BME280;9763;48.780;9.212;2023-07-28T03:26:18;97687.56;;;21.26;71.62
19259;BME280;9763;48.780;9.212;2023-07-28T03:29:42;97690.88;;;21.28;71.19
19259;BME280;9763;48.780;9.212;2023-07-28T03:33:06;97673.47;;;21.11;71.19
19259;BME280;9763;48.780;9.212;2023-07-28T03:36:30;97709.72;;;21.33;71.55
19259;BME280;9763;48.780;9.212;2023-07-28T03:39:54;97726.31;;;21.35;70.91
19259;BME280;9763;48.780;9.212;2023-07-28T03:43:26;97728.78;;;21.37;71.09
19259;BME280;9763;48.780;9.212;2023-07-28T03:46:50;97720.06;;;21.28;71.19
19259;BME280;9763;48.780;9.212;2023-07-28T03:50:13;97737.75;;;21.36;71.06
19259;BME280;9763;48.780;9.212;2023-07-28T03:53:37;97738.75;;;21.35;71.46
19259;BME280;9763;48.780;9.212;2023-07-28T03:57:01;97733.81;;;21.32;70.85
19259;BME280;9763;48.780;9.212;2023-07-28T04:00:25;97715.03;;;21.18;71.67
19259;BME280;9763;48.780;9.212;2023-07-28T04:03:49;97740.13;;;21.31;70.95
19259;BME280;9763;48.780;9.212;2023-07-28T04:07:13;97736.63;;;21.30;71.32
19259;BME280;9763;48.780;9.212;2023-07-28T04:10:37;97720.16;;;21.20;71.52
19259;BME280;9763;48.780;9.212;2023-07-28T04:14:00;97737.28;;;21.32;71.66
19259;BME280;9763;48.780;9.212;2023-07-28T04:17:27;97736.28;;;21.33;71.74
19259;BME280;9763;48.780;9.212;2023-07-28T04:20:51;97723.66;;;21.35;71.69
19259;BME280;9763;48.780;9.212;2023-07-28T04:24:15;97712.63;;;21.38;71.99
19259;BME280;9763;48.780;9.212;2023-07-28T04:27:42;97712.09;;;21.43;71.79
19259;BME280;9763;48.780;9.212;2023-07-28T04:31:05;97712.56;;;21.46;71.80
19259;BME280;9763;48.780;9.212;2023-07-28T04:34:52;97708.84;;;21.62;72.15
19259;BME280;9763;48.780;9.212;2023-07-28T04:38:35;97709.38;;;21.72;71.57
19259;BME280;9763;48.780;9.212;2023-07-28T04:41:59;97704.13;;;21.79;71.71
19259;BME280;9763;48.780;9.212;2023-07-28T04:45:23;97705.59;;;21.81;71.30
19259;BME280;9763;48.780;9.212;2023-07-28T04:48:47;97706.78;;;21.79;71.29
19259;BME280;9763;48.780;9.212;2023-07-28T04:52:31;97711.78;;;21.67;72.16
19259;BME280;9763;48.780;9.212;2023-07-28T04:56:13;97720.69;;;21.60;71.98
19259;BME280;9763;48.780;9.212;2023-07-28T04:59:37;97718.75;;;21.53;72.56
19259;BME280;9763;48.780;9.212;2023-07-28T05:03:00;97712.44;;;21.54;72.53
19259;BME280;9763;48.780;9.212;2023-07-28T05:06:28;97707.59;;;21.58;72.57
19259;BME280;9763;48.780;9.212;2023-07-28T05:09:53;97725.00;;;21.61;72.52
19259;BME280;9763;48.780;9.212;2023-07-28T05:13:20;97728.47;;;21.61;71.94
19259;BME280;9763;48.780;9.212;2023-07-28T05:16:50;97723.53;;;21.58;72.37
19259;BME280;9763;48.780;9.212;2023-07-28T05:20:28;97737.22;;;21.62;72.07
19259;BME280;9763;48.780;9.212;2023-07-28T05:24:01;97739.81;;;21.55;72.39
19259;BME280;9763;48.780;9.212;2023-07-28T05:27:27;97741.00;;;21.52;73.09
19259;BME280;9763;48.780;9.212;2023-07-28T05:30:51;97746.91;;;21.48;73.85
19259;BME280;9763;48.780;9.212;2023-07-28T05:34:15;97750.72;;;21.45;74.29
19259;BME280;9763;48.780;9.212;2023-07-28T05:37:39;97746.63;;;21.43;74.57
19259;BME280;9763;48.780;9.212;2023-07-28T05:41:03;97740.41;;;21.36;74.85
19259;BME280;9763;48.780;9.212;2023-07-28T05:44:29;97745.78;;;21.42;75.92
19259;BME280;9763;48.780;9.212;2023-07-28T05:47:52;97754.03;;;21.47;76.22
19259;BME280;9763;48.780;9.212;2023-07-28T05:51:16;97764.47;;;21.49;77.00
19259;BME280;9763;48.780;9.212;2023-07-28T05:54:39;97750.28;;;21.42;77.13
19259;BME280;9763;48.780;9.212;2023-07-28T05:58:03;97759.16;;;21.49;77.17
19259;BME280;9763;48.780;9.212;2023-07-28T06:01:29;97762.91;;;21.54;78.14
19259;BME280;9763;48.780;9.212;2023-07-28T06:05:09;97769.03;;;21.55;78.41
19259;BME280;9763;48.780;9.212;2023-07-28T06:08:33;97766.38;;;21.55;78.89
19259;BME280;9763;48.780;9.212;2023-07-28T06:11:57;97776.47;;;21.60;79.03
19259;BME280;9763;48.780;9.212;2023-07-28T06:15:22;97782.38;;;21.62;79.10
19259;BME280;9763;48.780;9.212;2023-07-28T06:18:47;97766.28;;;21.63;79.67
19259;BME280;9763;48.780;9.212;2023-07-28T06:22:15;97784.25;;;21.61;79.99
19259;BME280;9763;48.780;9.212;2023-07-28T06:25:40;97774.41;;;21.62;80.27
19259;BME280;9763;48.780;9.212;2023-07-28T06:29:06;97782.22;;;21.63;80.51
19259;BME280;9763;48.780;9.212;2023-07-28T06:32:30;97773.06;;;21.66;80.67
19259;BME280;9763;48.780;9.212;2023-07-28T06:35:55;97785.97;;;21.69;80.31
19259;BME280;9763;48.780;9.212;2023-07-28T06:39:19;97788.09;;;21.73;80.99
19259;BME280;9763;48.780;9.212;2023-07-28T06:42:43;97791.34;;;21.75;80.31
19259;BME280;9763;48.780;9.212;2023-07-28T06:46:07;97805.84;;;21.73;80.69
19259;BME280;9763;48.780;9.212;2023-07-28T06:49:30;97808.59;;;21.79;81.33
19259;BME280;9763;48.780;9.212;2023-07-28T06:52:57;97798.41;;;21.83;81.43
19259;BME280;9763;48.780;9.212;2023-07-28T06:56:21;97790.25;;;21.84;81.29
19259;BME280;9763;48.780;9.212;2023-07-28T06:59:46;97785.56;;;21.86;81.81
19259;BME280;9763;48.780;9.212;2023-07-28T07:03:10;97798.75;;;21.95;82.07
19259;BME280;9763;48.780;9.212;2023-07-28T07:06:35;97808.34;;;22.10;81.52
19259;BME280;9763;48.780;9.212;2023-07-28T07:10:01;97809.72;;;22.21;81.76
19259;BME280;9763;48.780;9.212;2023-07-28T07:13:24;97804.84;;;22.24;82.04
19259;BME280;9763;48.780;9.212;2023-07-28T07:16:49;97815.94;;;22.28;81.95
19259;BME280;9763;48.780;9.212;2023-07-28T07:20:12;97817.63;;;22.36;81.84
19259;BME280;9763;48.780;9.212;2023-07-28T07:23:37;97818.56;;;22.43;82.13
19259;BME280;9763;48.780;9.212;2023-07-28T07:27:21;97823.09;;;22.49;82.17
19259;BME280;9763;48.780;9.212;2023-07-28T07:30:45;97827.50;;;22.56;82.62
19259;BME280;9763;48.780;9.212;2023-07-28T07:34:08;97834.56;;;22.71;82.62
19259;BME280;9763;48.780;9.212;2023-07-28T07:37:32;97821.41;;;22.84;82.69
19259;BME280;9763;48.780;9.212;2023-07-28T07:40:55;97821.72;;;22.95;83.15
19259;BME280;9763;48.780;9.212;2023-07-28T07:44:20;97816.97;;;23.19;83.59
19259;BME280;9763;48.780;9.212;2023-07-28T07:47:44;97810.38;;;23.43;83.90
19259;BME280;9763;48.780;9.212;2023-07-28T07:51:08;97820.63;;;23.74;83.95
19259;BME280;9763;48.780;9.212;2023-07-28T07:54:32;97825.03;;;23.88;83.02
19259;BME280;9763;48.780;9.212;2023-07-28T07:57:55;97824.00;;;23.89;83.26
19259;BME280;9763;48.780;9.212;2023-07-28T08:01:20;97830.53;;;23.86;82.66
19259;BME280;9763;48.780;9.212;2023-07-28T08:04:44;97833.78;;;23.82;82.28
19259;BME280;9763;48.780;9.212;2023-07-28T08:08:07;97839.75;;;23.84;82.61
19259;BME280;9763;48.780;9.212;2023-07-28T08:11:32;97840.19;;;23.87;82.08
19259;BME280;9763;48.780;9.212;2023-07-28T08:14:56;97836.50;;;23.88;81.70
19259;BME280;9763;48.780;9.212;2023-07-28T08:18:20;97842.66;;;23.89;81.92
19259;BME280;9763;48.780;9.212;2023-07-28T08:21:45;97856.81;;;23.89;81.63
19259;BME280;9763;48.780;9.212;2023-07-28T08:25:09;97860.69;;;23.87;81.25
19259;BME280;9763;48.780;9.212;2023-07-28T08:28:32;97861.13;;;23.90;81.65
19259;BME280;9763;48.780;9.212;2023-07-28T08:31:56;97864.63;;;23.97;80.99
19259;BME280;9763;48.780;9.212;2023-07-28T08:35:21;97866.53;;;24.10;81.18
19259;BME280;9763;48.780;9.212;2023-07-28T08:38:44;97868.31;;;24.37;80.78
19259;BME280;9763;48.780;9.212;2023-07-28T08:42:08;97873.16;;;24.75;79.46
19259;BME280;9763;48.780;9.212;2023-07-28T08:45:32;97879.56;;;25.07;78.83
19259;BME280;9763;48.780;9.212;2023-07-28T08:48:56;97881.00;;;25.36;77.79
19259;BME280;9763;48.780;9.212;2023-07-28T08:52:21;97874.22;;;25.46;76.75
19259;BME280;9763;48.780;9.212;2023-07-28T08:55:47;97873.19;;;25.54;75.89
19259;BME280;9763;48.780;9.212;2023-07-28T08:59:11;97879.56;;;25.66;76.21
19259;BME280;9763;48.780;9.212;2023-07-28T09:02:34;97885.31;;;25.70;75.14
19259;BME280;9763;48.780;9.212;2023-07-28T09:06:02;97890.25;;;25.66;74.87
19259;BME280;9763;48.780;9.212;2023-07-28T09:09:32;97891.91;;;25.61;75.00
19259;BME280;9763;48.780;9.212;2023-07-28T09:12:56;97889.44;;;25.59;74.81
19259;BME280;9763;48.780;9.212;2023-07-28T09:16:22;97883.88;;;25.61;75.26
19259;BME280;9763;48.780;9.212;2023-07-28T09:19:51;97881.00;;;25.62;74.71
19259;BME280;9763;48.780;9.212;2023-07-28T09:23:16;97886.34;;;25.62;75.04
19259;BME280;9763;48.780;9.212;2023-07-28T09:26:42;97882.63;;;25.57;74.69
19259;BME280;9763;48.780;9.212;2023-07-28T09:30:07;97884.69;;;25.55;74.77
19259;BME280;9763;48.780;9.212;2023-07-28T09:33:33;97886.34;;;25.56;74.68
19259;BME280;9763;48.780;9.212;2023-07-28T09:36:58;97885.53;;;25.62;74.68
19259;BME280;9763;48.780;9.212;2023-07-28T09:40:23;97888.59;;;25.78;73.98
19259;BME280;9763;48.780;9.212;2023-07-28T09:43:48;97877.00;;;25.98;73.82
19259;BME280;9763;48.780;9.212;2023-07-28T09:47:13;97880.72;;;26.54;73.23
19259;BME280;9763;48.780;9.212;2023-07-28T09:50:39;97879.75;;;27.12;72.87
19259;BME280;9763;48.780;9.212;2023-07-28T09:54:05;97873.47;;;27.92;71.94
19259;BME280;9763;48.780;9.212;2023-07-28T09:57:33;97872.06;;;28.26;70.65
19259;BME280;9763;48.780;9.212;2023-07-28T10:01:02;97872.53;;;28.23;70.30
19259;BME280;9763;48.780;9.212;2023-07-28T10:04:29;97859.75;;;28.01;70.64
19259;BME280;9763;48.780;9.212;2023-07-28T10:07:53;97882.72;;;27.96;70.96
19259;BME280;9763;48.780;9.212;2023-07-28T10:11:18;97881.81;;;28.03;70.34
19259;BME280;9763;48.780;9.212;2023-07-28T10:14:43;97872.44;;;28.12;70.13
19259;BME280;9763;48.780;9.212;2023-07-28T10:18:12;97896.59;;;28.12;69.87
19259;BME280;9763;48.780;9.212;2023-07-28T10:21:40;97890.97;;;27.95;69.71
19259;BME280;9763;48.780;9.212;2023-07-28T10:25:06;97889.69;;;27.79;70.13
19259;BME280;9763;48.780;9.212;2023-07-28T10:28:35;97888.75;;;27.74;69.73
19259;BME280;9763;48.780;9.212;2023-07-28T10:32:00;97897.88;;;27.66;69.99
19259;BME280;9763;48.780;9.212;2023-07-28T10:35:26;97896.16;;;27.47;70.15
19259;BME280;9763;48.780;9.212;2023-07-28T10:39:00;97901.81;;;27.39;70.04
19259;BME280;9763;48.780;9.212;2023-07-28T10:42:25;97897.72;;;27.36;69.93
19259;BME280;9763;48.780;9.212;2023-07-28T10:45:49;97901.44;;;27.35;70.21
19259;BME280;9763;48.780;9.212;2023-07-28T10:49:16;97904.72;;;27.37;69.96
19259;BME280;9763;48.780;9.212;2023-07-28T10:52:43;97898.53;;;27.37;69.87
19259;BME280;9763;48.780;9.212;2023-07-28T10:56:08;97903.28;;;27.35;70.24
19259;BME280;9763;48.780;9.212;2023-07-28T10:59:35;97895.69;;;27.32;69.95
19259;BME280;9763;48.780;9.212;2023-07-28T11:02:58;97891.91;;;27.39;69.67
19259;BME280;9763;48.780;9.212;2023-07-28T11:06:22;97894.66;;;27.57;69.32
19259;BME280;9763;48.780;9.212;2023-07-28T11:09:50;97896.72;;;27.99;69.21
19259;BME280;9763;48.780;9.212;2023-07-28T11:13:14;97886.78;;;28.54;68.29
19259;BME280;9763;48.780;9.212;2023-07-28T11:16:58;97896.38;;;29.10;67.62
19259;BME280;9763;48.780;9.212;2023-07-28T11:20:24;97892.53;;;29.29;67.38
19259;BME280;9763;48.780;9.212;2023-07-28T11:23:48;97892.19;;;29.37;66.88
19259;BME280;9763;48.780;9.212;2023-07-28T11:27:13;97889.06;;;29.63;66.97
19259;BME280;9763;48.780;9.212;2023-07-28T11:30:38;97884.41;;;30.05;66.09
19259;BME280;9763;48.780;9.212;2023-07-28T11:34:13;97877.84;;;30.41;65.60
19259;BME280;9763;48.780;9.212;2023-07-28T11:37:40;97879.63;;;30.76;65.05
19259;BME280;9763;48.780;9.212;2023-07-28T11:41:05;97873.16;;;31.22;64.49
19259;BME280;9763;48.780;9.212;2023-07-28T11:44:30;97877.72;;;31.55;63.07
19259;BME280;9763;48.780;9.212;2023-07-28T11:47:59;97878.72;;;31.66;63.04
19259;BME280;9763;48.780;9.212;2023-07-28T11:51:23;97878.56;;;31.72;63.25
19259;BME280;9763;48.780;9.212;2023-07-28T11:54:47;97871.00;;;31.58;63.18
19259;BME280;9763;48.780;9.212;2023-07-28T11:58:12;97867.94;;;31.16;63.26
19259;BME280;9763;48.780;9.212;2023-07-28T12:01:52;97878.09;;;30.68;63.40
19259;BME280;9763;48.780;9.212;2023-07-28T12:05:19;97885.63;;;30.26;64.07
19259;BME280;9763;48.780;9.212;2023-07-28T12:08:43;97884.84;;;29.79;63.57
19259;BME280;9763;48.780;9.212;2023-07-28T12:12:07;97892.94;;;29.02;64.89
19259;BME280;9763;48.780;9.212;2023-07-28T12:15:31;97905.06;;;28.09;67.52
19259;BME280;9763;48.780;9.212;2023-07-28T12:18:59;97901.59;;;27.40;69.04
19259;BME280;9763;48.780;9.212;2023-07-28T12:22:23;97896.63;;;26.81;69.99
19259;BME280;9763;48.780;9.212;2023-07-28T12:25:48;97900.56;;;26.34;71.25
19259;BME280;9763;48.780;9.212;2023-07-28T12:29:12;97904.53;;;26.11;72.38
19259;BME280;9763;48.780;9.212;2023-07-28T12:32:35;97903.13;;;26.02;73.84
19259;BME280;9763;48.780;9.212;2023-07-28T12:36:06;97899.06;;;25.93;73.61
19259;BME280;9763;48.780;9.212;2023-07-28T12:39:35;97892.50;;;25.82;74.92
19259;BME280;9763;48.780;9.212;2023-07-28T12:43:04;97889.00;;;25.75;75.46
19259;BME280;9763;48.780;9.212;2023-07-28T12:46:29;97894.56;;;25.74;75.50
19259;BME280;9763;48.780;9.212;2023-07-28T12:49:53;97893.09;;;25.84;76.39
19259;BME280;9763;48.780;9.212;2023-07-28T12:53:19;97898.00;;;26.01;76.71
19259;BME280;9763;48.780;9.212;2023-07-28T12:56:45;97893.38;;;26.21;77.14
19259;BME280;9763;48.780;9.212;2023-07-28T13:00:10;97890.88;;;26.39;77.41
19259;BME280;9763;48.780;9.212;2023-07-28T13:03:38;97897.97;;;26.65;77.18
19259;BME280;9763;48.780;9.212;2023-07-28T13:07:02;97896.59;;;26.87;77.77
19259;BME280;9763;48.780;9.212;2023-07-28T13:10:30;97903.97;;;26.99;77.12
19259;BME280;9763;48.780;9.212;2023-07-28T13:13:57;97903.47;;;27.08;76.11
19259;BME280;9763;48.780;9.212;2023-07-28T13:17:20;97908.47;;;27.30;74.89
19259;BME280;9763;48.780;9.212;2023-07-28T13:20:45;97909.16;;;27.50;73.46
19259;BME280;9763;48.780;9.212;2023-07-28T13:24:08;97908.16;;;27.69;71.99
19259;BME280;9763;48.780;9.212;2023-07-28T13:27:33;97906.25;;;27.76;71.01
19259;BME280;9763;48.780;9.212;2023-07-28T13:30:57;97920.84;;;27.80;70.62
19259;BME280;9763;48.780;9.212;2023-07-28T13:34:20;97916.16;;;27.51;71.10
19259;BME280;9763;48.780;9.212;2023-07-28T13:37:44;97920.28;;;27.22;71.19
19259;BME280;9763;48.780;9.212;2023-07-28T13:41:07;97921.09;;;26.91;71.76
19259;BME280;9763;48.780;9.212;2023-07-28T13:44:32;97925.59;;;26.59;71.17
19259;BME280;9763;48.780;9.212;2023-07-28T13:47:56;97927.56;;;26.26;71.83
19259;BME280;9763;48.780;9.212;2023-07-28T13:51:20;97947.63;;;25.83;72.50
19259;BME280;9763;48.780;9.212;2023-07-28T13:55:04;97962.22;;;25.35;72.91
19259;BME280;9763;48.780;9.212;2023-07-28T13:58:30;97977.72;;;24.92;72.82
19259;BME280;9763;48.780;9.212;2023-07-28T14:01:55;97966.50;;;24.55;73.40
19259;BME280;9763;48.780;9.212;2023-07-28T14:05:20;97974.97;;;24.24;74.26
19259;BME280;9763;48.780;9.212;2023-07-28T14:08:45;97942.94;;;23.90;75.00
19259;BME280;9763;48.780;9.212;2023-07-28T14:12:08;97928.28;;;23.79;76.10
19259;BME280;9763;48.780;9.212;2023-07-28T14:15:32;97912.63;;;23.63;76.40
19259;BME280;9763;48.780;9.212;2023-07-28T14:18:57;97890.28;;;23.43;76.60
19259;BME280;9763;48.780;9.212;2023-07-28T14:22:21;97890.41;;;23.28;77.27
19259;BME280;9763;48.780;9.212;2023-07-28T14:25:44;97897.31;;;23.22;78.25
19259;BME280;9763;48.780;9.212;2023-07-28T14:29:08;97906.75;;;23.25;78.97
19259;BME280;9763;48.780;9.212;2023-07-28T14:32:31;97938.34;;;23.28;79.70
19259;BME280;9763;48.780;9.212;2023-07-28T14:35:56;97964.34;;;23.26;79.91
19259;BME280;9763;48.780;9.212;2023-07-28T14:39:20;97950.91;;;23.13;79.85
19259;BME280;9763;48.780;9.212;2023-07-28T14:42:43;97953.38;;;23.14;80.33
19259;BME280;9763;48.780;9.212;2023-07-28T14:46:07;97949.25;;;23.12;80.71
19259;BME280;9763;48.780;9.212;2023-07-28T14:49:31;97953.75;;;23.11;80.95
19259;BME280;9763;48.780;9.212;2023-07-28T14:52:58;97943.47;;;23.08;81.91
19259;BME280;9763;48.780;9.212;2023-07-28T14:56:22;97933.72;;;23.15;81.77
19259;BME280;9763;48.780;9.212;2023-07-28T14:59:46;97935.59;;;23.21;82.07
19259;BME280;9763;48.780;9.212;2023-07-28T15:03:10;97944.34;;;23.37;82.53
19259;BME280;9763;48.780;9.212;2023-07-28T15:06:34;97951.38;;;23.44;82.46
19259;BME280;9763;48.780;9.212;2023-07-28T15:09:58;97922.25;;;23.43;82.75
19259;BME280;9763;48.780;9.212;2023-07-28T15:13:22;97931.34;;;23.48;82.41
19259;BME280;9763;48.780;9.212;2023-07-28T15:16:46;97930.59;;;23.54;82.60
19259;BME280;9763;48.780;9.212;2023-07-28T15:20:10;97941.56;;;23.66;83.04
19259;BME280;9763;48.780;9.212;2023-07-28T15:23:34;97949.00;;;23.77;83.31
19259;BME280;9763;48.780;9.212;2023-07-28T15:26:59;97943.56;;;23.92;84.09
19259;BME280;9763;48.780;9.212;2023-07-28T15:30:23;97950.03;;;24.11;83.85
19259;BME280;9763;48.780;9.212;2023-07-28T15:33:46;97941.94;;;24.25;84.16
19259;BME280;9763;48.780;9.212;2023-07-28T15:37:10;97942.97;;;24.31;83.90
19259;BME280;9763;48.780;9.212;2023-07-28T15:40:34;97951.63;;;24.33;83.65
19259;BME280;9763;48.780;9.212;2023-07-28T15:43:59;97949.34;;;24.30;83.06
19259;BME280;9763;48.780;9.212;2023-07-28T15:47:23;97948.09;;;24.26;82.93
19259;BME280;9763;48.780;9.212;2023-07-28T15:50:46;97959.31;;;24.21;83.00
19259;BME280;9763;48.780;9.212;2023-07-28T15:54:11;97959.09;;;24.16;82.98
19259;BME280;9763;48.780;9.212;2023-07-28T15:57:35;97954.34;;;24.12;83.01
19259;BME280;9763;48.780;9.212;2023-07-28T16:01:00;97945.34;;;24.13;82.63
19259;BME280;9763;48.780;9.212;2023-07-28T16:04:24;97938.53;;;24.10;82.90
19259;BME280;9763;48.780;9.212;2023-07-28T16:07:47;97939.84;;;24.21;83.33
19259;BME280;9763;48.780;9.212;2023-07-28T16:11:11;97944.00;;;24.30;83.00
19259;BME280;9763;48.780;9.212;2023-07-28T16:14:34;97938.03;;;24.28;83.42
19259;BME280;9763;48.780;9.212;2023-07-28T16:17:59;97941.78;;;24.33;83.59
19259;BME280;9763;48.780;9.212;2023-07-28T16:21:23;97934.19;;;24.37;83.36
19259;BME280;9763;48.780;9.212;2023-07-28T16:24:47;97935.03;;;24.37;83.28
19259;BME280;9763;48.780;9.212;2023-07-28T16:28:10;97941.59;;;24.41;83.55
19259;BME280;9763;48.780;9.212;2023-07-28T16:31:34;97942.22;;;24.44;83.35
19259;BME280;9763;48.780;9.212;2023-07-28T16:34:59;97939.56;;;24.44;83.52
19259;BME280;9763;48.780;9.212;2023-07-28T16:38:23;97935.03;;;24.44;83.33
19259;BME280;9763;48.780;9.212;2023-07-28T16:41:47;97934.22;;;24.44;82.93
19259;BME280;9763;48.780;9.212;2023-07-28T16:45:12;97927.63;;;24.39;82.79
19259;BME280;9763;48.780;9.212;2023-07-28T16:48:36;97930.72;;;24.36;83.24
19259;BME280;9763;48.780;9.212;2023-07-28T16:52:01;97917.97;;;24.32;83.17
19259;BME280;9763;48.780;9.212;2023-07-28T16:55:24;97913.84;;;24.29;83.09
19259;BME280;9763;48.780;9.212;2023-07-28T16:58:48;97918.75;;;24.26;82.92
19259;BME280;9763;48.780;9.212;2023-07-28T17:02:11;97912.72;;;24.17;83.32
19259;BME280;9763;48.780;9.212;2023-07-28T17:05:35;97922.81;;;24.22;82.96
19259;BME280;9763;48.780;9.212;2023-07-28T17:09:00;97926.34;;;24.22;83.82
19259;BME280;9763;48.780;9.212;2023-07-28T17:12:24;97936.63;;;24.25;83.54
19259;BME280;9763;48.780;9.212;2023-07-28T17:15:48;97944.81;;;24.30;83.28
19259;BME280;9763;48.780;9.212;2023-07-28T17:19:12;97944.25;;;24.35;83.74
19259;BME280;9763;48.780;9.212;2023-07-28T17:22:35;97937.25;;;24.34;83.82
19259;BME280;9763;48.780;9.212;2023-07-28T17:26:00;97941.78;;;24.40;83.51
19259;BME280;9763;48.780;9.212;2023-07-28T17:29:24;97944.88;;;24.44;84.19
19259;BME280;9763;48.780;9.212;2023-07-28T17:32:48;97943.69;;;24.46;84.04
19259;BME280;9763;48.780;9.212;2023-07-28T17:36:12;97940.56;;;24.42;84.07
19259;BME280;9763;48.780;9.212;2023-07-28T17:39:35;97939.13;;;24.40;83.37
19259;BME280;9763;48.780;9.212;2023-07-28T17:43:01;97939.13;;;24.40;83.89
19259;BME280;9763;48.780;9.212;2023-07-28T17:46:24;97931.13;;;24.40;83.77
19259;BME280;9763;48.780;9.212;2023-07-28T17:49:48;97929.50;;;24.39;83.43
19259;BME280;9763;48.780;9.212;2023-07-28T17:53:12;97900.66;;;24.21;83.78
19259;BME280;9763;48.780;9.212;2023-07-28T17:56:35;97932.56;;;24.36;83.52
19259;BME280;9763;48.780;9.212;2023-07-28T18:00:00;97925.13;;;24.31;82.87
19259;BME280;9763;48.780;9.212;2023-07-28T18:03:27;97924.94;;;24.26;83.44
19259;BME280;9763;48.780;9.212;2023-07-28T18:06:51;97924.84;;;24.20;83.35
19259;BME280;9763;48.780;9.212;2023-07-28T18:10:14;97928.53;;;24.19;83.31
19259;BME280;9763;48.780;9.212;2023-07-28T18:13:38;97936.72;;;24.17;83.63
19259;BME280;9763;48.780;9.212;2023-07-28T18:17:03;97944.72;;;24.17;83.61
19259;BME280;9763;48.780;9.212;2023-07-28T18:20:27;97946.56;;;24.17;83.73